KBGE

Decatur County Industrial Airpark

Bainbridge, Georgia, USA
METAR KBGE 231055Z AUTO 20004KT 7SM OVC005 23/23 A3008 RMK AO2
Observed Flight Rules
May-23 @ 10:55 UTC (12 minutes ago) Instrument Flight Rules
Wind Visibility Clouds
200° at 4 knots 7 miles
  • Overcast at 500' AGL
Temperatures Readings
Current 23°C / 73°F
Dewpoint 23°C / 73°F
Humidity 100%
Altimeter 30.08" Hg
Pressure 1019 hPa
Elevation 43
METAR KBGE 231055Z AUTO 20004KT 7SM OVC005 23/23 A3008 RMK AO2
Observed Flight Rules
May-23 @ 10:55 UTC
(12 minutes ago)
IFR
Wind Visibility
200° at 4 knots 7 miles
Clouds
  • Overcast at 500' AGL
Temperature Dewpoint
23°C / 73°F 23°C / 73°F
Humidity Altimeter Pressure
100% 30.08" Hg 1019 hPa